sensor_id;sensor_type;location;lat;lon;timestamp;pressure;altitude;pressure_sealevel;temperature;humidity
31357;BME280;60001;48.404;11.738;2023-08-24T00:00:11;96554.88;;;24.13;67.04
31357;BME280;60001;48.404;11.738;2023-08-24T00:01:42;96559.84;;;24.11;66.69
31357;BME280;60001;48.404;11.738;2023-08-24T00:03:13;96557.44;;;23.97;67.16
31357;BME280;60001;48.404;11.738;2023-08-24T00:04:45;96559.47;;;24.00;66.46
31357;BME280;60001;48.404;11.738;2023-08-24T00:06:20;96557.44;;;23.97;66.21
31357;BME280;60001;48.404;11.738;2023-08-24T00:07:53;96565.19;;;23.98;66.67
31357;BME280;60001;48.404;11.738;2023-08-24T00:09:26;96563.28;;;23.99;66.71
31357;BME280;60001;48.404;11.738;2023-08-24T00:10:58;96559.41;;;23.88;66.86
31357;BME280;60001;48.404;11.738;2023-08-24T00:12:29;96555.59;;;23.89;66.80
31357;BME280;60001;48.404;11.738;2023-08-24T00:14:00;96562.31;;;23.83;67.19
31357;BME280;60001;48.404;11.738;2023-08-24T00:15:31;96548.72;;;23.79;66.80
31357;BME280;60001;48.404;11.738;2023-08-24T00:17:03;96550.47;;;23.75;67.54
31357;BME280;60001;48.404;11.738;2023-08-24T00:18:34;96553.97;;;23.75;67.38
31357;BME280;60001;48.404;11.738;2023-08-24T00:20:07;96546.66;;;23.76;67.60
31357;BME280;60001;48.404;11.738;2023-08-24T00:21:41;96547.44;;;23.76;67.68
31357;BME280;60001;48.404;11.738;2023-08-24T00:23:13;96551.34;;;23.88;67.49
31357;BME280;60001;48.404;11.738;2023-08-24T00:24:45;96552.44;;;23.87;67.15
31357;BME280;60001;48.404;11.738;2023-08-24T00:26:17;96551.97;;;23.85;67.48
31357;BME280;60001;48.404;11.738;2023-08-24T00:27:48;96553.25;;;23.66;68.01
31357;BME280;60001;48.404;11.738;2023-08-24T00:29:19;96551.00;;;23.68;67.68
31357;BME280;60001;48.404;11.738;2023-08-24T00:30:52;96551.47;;;23.70;67.38
31357;BME280;60001;48.404;11.738;2023-08-24T00:32:23;96544.03;;;23.67;66.77
31357;BME280;60001;48.404;11.738;2023-08-24T00:33:55;96545.63;;;23.68;65.09
31357;BME280;60001;48.404;11.738;2023-08-24T00:35:26;96553.63;;;23.77;64.85
31357;BME280;60001;48.404;11.738;2023-08-24T00:36:57;96548.91;;;23.74;64.98
31357;BME280;60001;48.404;11.738;2023-08-24T00:38:29;96550.38;;;23.71;65.14
31357;BME280;60001;48.404;11.738;2023-08-24T00:40:03;96549.25;;;23.72;65.50
31357;BME280;60001;48.404;11.738;2023-08-24T00:41:38;96551.47;;;23.70;66.18
31357;BME280;60001;48.404;11.738;2023-08-24T00:43:09;96551.16;;;23.72;66.40
31357;BME280;60001;48.404;11.738;2023-08-24T00:44:43;96553.06;;;23.71;66.93
31357;BME280;60001;48.404;11.738;2023-08-24T00:46:14;96550.09;;;23.64;67.57
31357;BME280;60001;48.404;11.738;2023-08-24T00:47:48;96555.06;;;23.53;68.45
31357;BME280;60001;48.404;11.738;2023-08-24T00:49:19;96553.16;;;23.54;68.02
31357;BME280;60001;48.404;11.738;2023-08-24T00:50:51;96556.16;;;23.61;67.74
31357;BME280;60001;48.404;11.738;2023-08-24T00:52:24;96557.44;;;23.55;67.67
31357;BME280;60001;48.404;11.738;2023-08-24T00:53:58;96552.03;;;23.55;68.05
31357;BME280;60001;48.404;11.738;2023-08-24T00:55:30;96542.56;;;23.49;67.98
31357;BME280;60001;48.404;11.738;2023-08-24T00:57:03;96542.31;;;23.42;68.20
31357;BME280;60001;48.404;11.738;2023-08-24T00:58:34;96546.13;;;23.41;68.99
31357;BME280;60001;48.404;11.738;2023-08-24T01:00:09;96550.59;;;23.37;69.08
31357;BME280;60001;48.404;11.738;2023-08-24T01:01:41;96543.56;;;23.23;69.48
31357;BME280;60001;48.404;11.738;2023-08-24T01:03:16;96545.31;;;23.19;69.96
31357;BME280;60001;48.404;11.738;2023-08-24T01:04:48;96543.06;;;23.21;70.17
31357;BME280;60001;48.404;11.738;2023-08-24T01:06:20;96547.66;;;23.21;68.94
31357;BME280;60001;48.404;11.738;2023-08-24T01:07:50;96543.66;;;23.27;67.66
31357;BME280;60001;48.404;11.738;2023-08-24T01:09:22;96544.78;;;23.26;67.63
31357;BME280;60001;48.404;11.738;2023-08-24T01:11:01;96546.69;;;23.25;67.17
31357;BME280;60001;48.404;11.738;2023-08-24T01:12:45;96554.78;;;23.25;67.31
31357;BME280;60001;48.404;11.738;2023-08-24T01:14:25;96542.56;;;23.28;66.86
31357;BME280;60001;48.404;11.738;2023-08-24T01:16:09;96543.66;;;23.27;66.92
31357;BME280;60001;48.404;11.738;2023-08-24T01:17:48;96544.34;;;23.24;67.65
31357;BME280;60001;48.404;11.738;2023-08-24T01:19:44;96554.00;;;23.25;68.07
31357;BME280;60001;48.404;11.738;2023-08-24T01:21:17;96544.59;;;23.10;69.07
31357;BME280;60001;48.404;11.738;2023-08-24T01:22:55;96544.59;;;23.10;69.47
31357;BME280;60001;48.404;11.738;2023-08-24T01:24:36;96536.22;;;23.03;69.95
31357;BME280;60001;48.404;11.738;2023-08-24T01:26:14;96543.81;;;23.01;69.81
31357;BME280;60001;48.404;11.738;2023-08-24T01:27:49;96542.06;;;23.05;69.69
31357;BME280;60001;48.404;11.738;2023-08-24T01:29:21;96539.22;;;23.02;69.97
31357;BME280;60001;48.404;11.738;2023-08-24T01:30:53;96538.31;;;22.97;70.39
31357;BME280;60001;48.404;11.738;2023-08-24T01:32:24;96534.22;;;22.91;70.20
31357;BME280;60001;48.404;11.738;2023-08-24T01:33:55;96532.19;;;22.80;70.48
31357;BME280;60001;48.404;11.738;2023-08-24T01:35:26;96542.00;;;22.84;70.46
31357;BME280;60001;48.404;11.738;2023-08-24T01:36:58;96532.19;;;22.80;70.93
31357;BME280;60001;48.404;11.738;2023-08-24T01:38:30;96540.13;;;22.76;70.96
31357;BME280;60001;48.404;11.738;2023-08-24T01:40:06;96524.66;;;22.64;70.89
31357;BME280;60001;48.404;11.738;2023-08-24T01:41:50;96545.19;;;22.78;70.69
31357;BME280;60001;48.404;11.738;2023-08-24T01:43:29;96535.22;;;22.78;70.43
31357;BME280;60001;48.404;11.738;2023-08-24T01:45:06;96540.75;;;22.82;69.96
31357;BME280;60001;48.404;11.738;2023-08-24T01:46:39;96539.47;;;22.88;70.09
31357;BME280;60001;48.404;11.738;2023-08-24T01:48:15;96538.88;;;22.74;70.55
31357;BME280;60001;48.404;11.738;2023-08-24T01:49:46;96534.81;;;22.67;70.52
31357;BME280;60001;48.404;11.738;2023-08-24T01:51:19;96536.69;;;22.67;71.13
31357;BME280;60001;48.404;11.738;2023-08-24T01:52:50;96546.03;;;22.69;70.99
31357;BME280;60001;48.404;11.738;2023-08-24T01:54:23;96539.91;;;22.52;71.27
31357;BME280;60001;48.404;11.738;2023-08-24T01:55:54;96533.91;;;22.46;71.85
31357;BME280;60001;48.404;11.738;2023-08-24T01:57:27;96543.88;;;22.54;71.92
31357;BME280;60001;48.404;11.738;2023-08-24T01:59:00;96540.03;;;22.64;71.42
31357;BME280;60001;48.404;11.738;2023-08-24T02:00:41;96542.25;;;22.62;71.40
31357;BME280;60001;48.404;11.738;2023-08-24T02:02:20;96539.91;;;22.60;71.72
31357;BME280;60001;48.404;11.738;2023-08-24T02:03:53;96538.28;;;22.59;71.42
31357;BME280;60001;48.404;11.738;2023-08-24T02:05:26;96533.69;;;22.60;72.10
31357;BME280;60001;48.404;11.738;2023-08-24T02:07:01;96535.63;;;22.51;72.34
31357;BME280;60001;48.404;11.738;2023-08-24T02:08:37;96523.81;;;22.43;72.65
31357;BME280;60001;48.404;11.738;2023-08-24T02:10:15;96527.78;;;22.37;72.26
31357;BME280;60001;48.404;11.738;2023-08-24T02:11:46;96526.03;;;22.41;72.23
31357;BME280;60001;48.404;11.738;2023-08-24T02:13:20;96527.44;;;22.47;72.31
31357;BME280;60001;48.404;11.738;2023-08-24T02:14:54;96521.06;;;22.52;72.34
31357;BME280;60001;48.404;11.738;2023-08-24T02:16:25;96526.31;;;22.48;72.50
31357;BME280;60001;48.404;11.738;2023-08-24T02:17:56;96527.00;;;22.36;72.76
31357;BME280;60001;48.404;11.738;2023-08-24T02:19:28;96535.06;;;22.36;73.28
31357;BME280;60001;48.404;11.738;2023-08-24T02:20:59;96520.81;;;22.36;73.29
31357;BME280;60001;48.404;11.738;2023-08-24T02:22:31;96514.19;;;22.33;73.56
31357;BME280;60001;48.404;11.738;2023-08-24T02:24:02;96523.38;;;22.32;73.48
31357;BME280;60001;48.404;11.738;2023-08-24T02:25:33;96516.56;;;22.35;73.12
31357;BME280;60001;48.404;11.738;2023-08-24T02:27:04;96525.56;;;22.30;73.84
31357;BME280;60001;48.404;11.738;2023-08-24T02:28:40;96517.19;;;22.32;73.56
31357;BME280;60001;48.404;11.738;2023-08-24T02:30:13;96519.88;;;22.32;73.79
31357;BME280;60001;48.404;11.738;2023-08-24T02:31:44;96511.00;;;22.31;73.46
31357;BME280;60001;48.404;11.738;2023-08-24T02:33:16;96516.25;;;22.28;73.71
31357;BME280;60001;48.404;11.738;2023-08-24T02:34:46;96515.81;;;22.26;74.01
31357;BME280;60001;48.404;11.738;2023-08-24T02:36:18;96503.28;;;22.30;73.92
31357;BME280;60001;48.404;11.738;2023-08-24T02:37:49;96497.56;;;22.31;73.33
31357;BME280;60001;48.404;11.738;2023-08-24T02:39:21;96508.94;;;22.37;73.22
31357;BME280;60001;48.404;11.738;2023-08-24T02:41:01;96503.28;;;22.30;72.86
31357;BME280;60001;48.404;11.738;2023-08-24T02:42:33;96501.03;;;22.40;72.05
31357;BME280;60001;48.404;11.738;2023-08-24T02:44:06;96507.38;;;22.36;71.76
31357;BME280;60001;48.404;11.738;2023-08-24T02:45:37;96506.56;;;22.35;71.73
31357;BME280;60001;48.404;11.738;2023-08-24T02:47:09;96501.19;;;22.35;72.32
31357;BME280;60001;48.404;11.738;2023-08-24T02:48:40;96494.25;;;22.34;72.41
31357;BME280;60001;48.404;11.738;2023-08-24T02:50:12;96505.34;;;22.33;72.76
31357;BME280;60001;48.404;11.738;2023-08-24T02:51:42;96499.13;;;22.41;72.29
31357;BME280;60001;48.404;11.738;2023-08-24T02:53:14;96496.75;;;22.39;72.48
31357;BME280;60001;48.404;11.738;2023-08-24T02:54:45;96500.41;;;22.35;72.38
31357;BME280;60001;48.404;11.738;2023-08-24T02:56:16;96497.25;;;22.33;72.68
31357;BME280;60001;48.404;11.738;2023-08-24T02:57:47;96492.97;;;22.32;71.90
31357;BME280;60001;48.404;11.738;2023-08-24T02:59:20;96500.25;;;22.31;72.45
31357;BME280;60001;48.404;11.738;2023-08-24T03:00:51;96494.75;;;22.28;72.00
31357;BME280;60001;48.404;11.738;2023-08-24T03:02:23;96493.28;;;22.30;72.11
31357;BME280;60001;48.404;11.738;2023-08-24T03:03:54;96493.91;;;22.36;71.52
31357;BME280;60001;48.404;11.738;2023-08-24T03:05:26;96491.88;;;22.33;71.18
31357;BME280;60001;48.404;11.738;2023-08-24T03:06:56;96497.59;;;22.23;71.67
31357;BME280;60001;48.404;11.738;2023-08-24T03:08:29;96495.25;;;22.21;72.05
31357;BME280;60001;48.404;11.738;2023-08-24T03:10:00;96498.88;;;22.16;72.61
31357;BME280;60001;48.404;11.738;2023-08-24T03:11:32;96489.09;;;22.12;72.75
31357;BME280;60001;48.404;11.738;2023-08-24T03:13:03;96491.28;;;22.19;72.21
31357;BME280;60001;48.404;11.738;2023-08-24T03:14:36;96493.81;;;22.15;72.85
31357;BME280;60001;48.404;11.738;2023-08-24T03:16:08;96500.66;;;22.12;72.52
31357;BME280;60001;48.404;11.738;2023-08-24T03:17:39;96494.94;;;22.05;73.14
31357;BME280;60001;48.404;11.738;2023-08-24T03:19:10;96500.03;;;21.98;72.95
31357;BME280;60001;48.404;11.738;2023-08-24T03:20:43;96502.72;;;21.98;73.38
31357;BME280;60001;48.404;11.738;2023-08-24T03:22:16;96486.13;;;21.87;73.25
31357;BME280;60001;48.404;11.738;2023-08-24T03:23:47;96499.88;;;21.86;73.79
31357;BME280;60001;48.404;11.738;2023-08-24T03:25:18;96497.66;;;21.79;74.22
31357;BME280;60001;48.404;11.738;2023-08-24T03:26:52;96493.53;;;21.82;73.57
31357;BME280;60001;48.404;11.738;2023-08-24T03:28:23;96501.00;;;21.85;73.14
31357;BME280;60001;48.404;11.738;2023-08-24T03:29:55;96497.19;;;21.86;72.96
31357;BME280;60001;48.404;11.738;2023-08-24T03:31:27;96488.63;;;21.93;73.37
31357;BME280;60001;48.404;11.738;2023-08-24T03:32:58;96489.13;;;21.86;73.45
31357;BME280;60001;48.404;11.738;2023-08-24T03:34:31;96491.19;;;21.80;73.76
31357;BME280;60001;48.404;11.738;2023-08-24T03:36:05;96491.66;;;21.74;74.14
31357;BME280;60001;48.404;11.738;2023-08-24T03:37:36;96489.13;;;21.69;74.66
31357;BME280;60001;48.404;11.738;2023-08-24T03:39:07;96489.13;;;21.69;75.01
31357;BME280;60001;48.404;11.738;2023-08-24T03:40:39;96487.72;;;21.71;74.69
31357;BME280;60001;48.404;11.738;2023-08-24T03:42:10;96489.94;;;21.78;74.29
31357;BME280;60001;48.404;11.738;2023-08-24T03:43:42;96487.72;;;21.80;74.13
31357;BME280;60001;48.404;11.738;2023-08-24T03:45:15;96481.22;;;21.81;74.21
31357;BME280;60001;48.404;11.738;2023-08-24T03:46:46;96487.38;;;21.81;73.89
31357;BME280;60001;48.404;11.738;2023-08-24T03:48:18;96486.91;;;21.79;73.89
31357;BME280;60001;48.404;11.738;2023-08-24T03:49:48;96492.28;;;21.79;73.86
31357;BME280;60001;48.404;11.738;2023-08-24T03:51:20;96490.56;;;21.75;74.20
31357;BME280;60001;48.404;11.738;2023-08-24T03:52:52;96497.50;;;21.76;74.26
31357;BME280;60001;48.404;11.738;2023-08-24T03:54:24;96490.88;;;21.73;73.94
31357;BME280;60001;48.404;11.738;2023-08-24T03:55:56;96490.09;;;21.73;74.21
31357;BME280;60001;48.404;11.738;2023-08-24T03:57:27;96492.31;;;21.71;74.01
31357;BME280;60001;48.404;11.738;2023-08-24T03:58:58;96482.19;;;21.68;73.98
31357;BME280;60001;48.404;11.738;2023-08-24T04:00:32;96488.19;;;21.73;73.88
31357;BME280;60001;48.404;11.738;2023-08-24T04:02:02;96486.75;;;21.76;73.74
31357;BME280;60001;48.404;11.738;2023-08-24T04:03:34;96489.75;;;21.74;73.31
31357;BME280;60001;48.404;11.738;2023-08-24T04:05:06;96485.97;;;21.67;73.74
31357;BME280;60001;48.404;11.738;2023-08-24T04:06:37;96482.03;;;21.64;73.93
31357;BME280;60001;48.404;11.738;2023-08-24T04:08:09;96482.03;;;21.64;74.02
31357;BME280;60001;48.404;11.738;2023-08-24T04:09:40;96490.41;;;21.62;74.03
31357;BME280;60001;48.404;11.738;2023-08-24T04:11:12;96485.69;;;21.59;74.34
31357;BME280;60001;48.404;11.738;2023-08-24T04:12:42;96486.78;;;21.58;74.48
31357;BME280;60001;48.404;11.738;2023-08-24T04:14:14;96486.47;;;21.60;74.46
31357;BME280;60001;48.404;11.738;2023-08-24T04:15:46;96485.53;;;21.56;74.85
31357;BME280;60001;48.404;11.738;2023-08-24T04:17:18;96488.81;;;21.61;74.51
31357;BME280;60001;48.404;11.738;2023-08-24T04:18:49;96489.78;;;21.66;74.56
31357;BME280;60001;48.404;11.738;2023-08-24T04:20:21;96495.63;;;21.59;75.07
31357;BME280;60001;48.404;11.738;2023-08-24T04:21:52;96496.88;;;21.61;73.95
31357;BME280;60001;48.404;11.738;2023-08-24T04:23:24;96490.75;;;21.52;74.41
31357;BME280;60001;48.404;11.738;2023-08-24T04:24:56;96493.88;;;21.54;74.46
31357;BME280;60001;48.404;11.738;2023-08-24T04:26:27;96493.09;;;21.54;74.80
31357;BME280;60001;48.404;11.738;2023-08-24T04:27:58;96499.25;;;21.54;74.74
31357;BME280;60001;48.404;11.738;2023-08-24T04:29:30;96481.25;;;21.46;74.88
31357;BME280;60001;48.404;11.738;2023-08-24T04:31:02;96498.81;;;21.52;74.91
31357;BME280;60001;48.404;11.738;2023-08-24T04:32:34;96494.38;;;21.48;75.00
31357;BME280;60001;48.404;11.738;2023-08-24T04:34:05;96495.81;;;21.45;74.87
31357;BME280;60001;48.404;11.738;2023-08-24T04:35:36;96494.69;;;21.46;75.15
31357;BME280;60001;48.404;11.738;2023-08-24T04:37:07;96504.19;;;21.52;74.25
31357;BME280;60001;48.404;11.738;2023-08-24T04:38:39;96501.34;;;21.49;74.40
31357;BME280;60001;48.404;11.738;2023-08-24T04:40:10;96505.28;;;21.51;74.25
31357;BME280;60001;48.404;11.738;2023-08-24T04:41:42;96507.97;;;21.51;74.14
31357;BME280;60001;48.404;11.738;2023-08-24T04:43:13;96501.47;;;21.52;73.77
31357;BME280;60001;48.404;11.738;2023-08-24T04:44:44;96510.19;;;21.58;72.52
31357;BME280;60001;48.404;11.738;2023-08-24T04:46:17;96501.78;;;21.68;72.20
31357;BME280;60001;48.404;11.738;2023-08-24T04:47:48;96503.06;;;21.79;71.52
31357;BME280;60001;48.404;11.738;2023-08-24T04:49:19;96510.00;;;21.72;71.59
31357;BME280;60001;48.404;11.738;2023-08-24T04:50:52;96506.03;;;21.69;71.23
31357;BME280;60001;48.404;11.738;2023-08-24T04:52:24;96502.44;;;21.65;72.10
31357;BME280;60001;48.404;11.738;2023-08-24T04:53:54;96506.38;;;21.59;72.47
31357;BME280;60001;48.404;11.738;2023-08-24T04:55:28;96493.44;;;21.52;72.51
31357;BME280;60001;48.404;11.738;2023-08-24T04:56:59;96492.31;;;21.45;72.67
31357;BME280;60001;48.404;11.738;2023-08-24T04:58:33;96499.75;;;21.48;72.58
31357;BME280;60001;48.404;11.738;2023-08-24T05:00:05;96495.34;;;21.43;73.10
31357;BME280;60001;48.404;11.738;2023-08-24T05:01:38;96499.28;;;21.46;73.60
31357;BME280;60001;48.404;11.738;2023-08-24T05:03:10;96499.59;;;21.44;75.63
31357;BME280;60001;48.404;11.738;2023-08-24T05:04:41;96496.75;;;21.49;76.49
31357;BME280;60001;48.404;11.738;2023-08-24T05:06:13;96496.13;;;21.52;76.41
31357;BME280;60001;48.404;11.738;2023-08-24T05:07:44;96496.56;;;21.54;76.10
31357;BME280;60001;48.404;11.738;2023-08-24T05:09:16;96497.22;;;21.60;76.44
31357;BME280;60001;48.404;11.738;2023-08-24T05:10:46;96503.69;;;21.59;76.64
31357;BME280;60001;48.404;11.738;2023-08-24T05:12:18;96494.53;;;21.51;76.78
31357;BME280;60001;48.404;11.738;2023-08-24T05:13:49;96499.44;;;21.49;77.68
31357;BME280;60001;48.404;11.738;2023-08-24T05:15:21;96495.16;;;21.48;77.48
31357;BME280;60001;48.404;11.738;2023-08-24T05:16:53;96485.38;;;21.52;76.23
31357;BME280;60001;48.404;11.738;2023-08-24T05:18:25;96494.03;;;21.67;74.76
31357;BME280;60001;48.404;11.738;2023-08-24T05:19:55;96489.47;;;21.58;74.46
31357;BME280;60001;48.404;11.738;2023-08-24T05:21:27;96490.09;;;21.55;74.93
31357;BME280;60001;48.404;11.738;2023-08-24T05:22:59;96493.28;;;21.57;74.95
31357;BME280;60001;48.404;11.738;2023-08-24T05:24:30;96486.78;;;21.58;74.95
31357;BME280;60001;48.404;11.738;2023-08-24T05:26:03;96491.69;;;21.56;74.47
31357;BME280;60001;48.404;11.738;2023-08-24T05:27:33;96486.31;;;21.56;74.40
31357;BME280;60001;48.404;11.738;2023-08-24T05:29:05;96490.41;;;21.62;74.87
31357;BME280;60001;48.404;11.738;2023-08-24T05:30:36;96484.41;;;21.66;74.69
31357;BME280;60001;48.404;11.738;2023-08-24T05:32:10;96485.81;;;21.72;75.12
31357;BME280;60001;48.404;11.738;2023-08-24T05:33:40;96465.44;;;21.71;74.47
31357;BME280;60001;48.404;11.738;2023-08-24T05:35:12;96486.28;;;21.91;74.73
31357;BME280;60001;48.404;11.738;2023-08-24T05:36:43;96482.78;;;21.99;74.71
31357;BME280;60001;48.404;11.738;2023-08-24T05:38:15;96477.22;;;21.96;74.86
31357;BME280;60001;48.404;11.738;2023-08-24T05:39:46;96478.66;;;22.02;74.72
31357;BME280;60001;48.404;11.738;2023-08-24T05:41:18;96493.19;;;22.01;73.89
31357;BME280;60001;48.404;11.738;2023-08-24T05:42:49;96488.63;;;22.10;73.62
31357;BME280;60001;48.404;11.738;2023-08-24T05:44:20;96488.94;;;22.08;73.01
31357;BME280;60001;48.404;11.738;2023-08-24T05:45:52;96469.13;;;22.04;72.03
31357;BME280;60001;48.404;11.738;2023-08-24T05:47:25;96486.50;;;22.24;72.18
31357;BME280;60001;48.404;11.738;2023-08-24T05:48:58;96486.00;;;22.31;72.14
31357;BME280;60001;48.404;11.738;2023-08-24T05:50:30;96492.00;;;22.36;72.32
31357;BME280;60001;48.404;11.738;2023-08-24T05:52:00;96492.31;;;22.43;71.71
31357;BME280;60001;48.404;11.738;2023-08-24T05:53:32;96488.78;;;22.52;70.80
31357;BME280;60001;48.404;11.738;2023-08-24T05:55:03;96485.47;;;22.55;71.05
31357;BME280;60001;48.404;11.738;2023-08-24T05:56:36;96494.31;;;22.55;70.40
31357;BME280;60001;48.404;11.738;2023-08-24T05:58:07;96485.59;;;22.58;70.26
31357;BME280;60001;48.404;11.738;2023-08-24T05:59:39;96486.34;;;22.67;70.69
31357;BME280;60001;48.404;11.738;2023-08-24T06:01:10;96491.13;;;22.62;71.07
31357;BME280;60001;48.404;11.738;2023-08-24T06:02:43;96485.22;;;22.68;71.40
31357;BME280;60001;48.404;11.738;2023-08-24T06:04:14;96484.56;;;22.71;71.02
31357;BME280;60001;48.404;11.738;2023-08-24T06:05:46;96479.97;;;22.72;69.44
31357;BME280;60001;48.404;11.738;2023-08-24T06:07:16;96486.13;;;22.81;68.38
31357;BME280;60001;48.404;11.738;2023-08-24T06:08:48;96489.00;;;22.76;67.52
31357;BME280;60001;48.404;11.738;2023-08-24T06:10:20;96478.06;;;22.73;66.96
31357;BME280;60001;48.404;11.738;2023-08-24T06:11:51;96487.53;;;22.79;66.45
31357;BME280;60001;48.404;11.738;2023-08-24T06:13:23;96496.41;;;22.88;65.87
31357;BME280;60001;48.404;11.738;2023-08-24T06:14:54;96491.28;;;22.95;66.01
31357;BME280;60001;48.404;11.738;2023-08-24T06:16:26;96491.34;;;23.07;65.67
31357;BME280;60001;48.404;11.738;2023-08-24T06:17:58;96494.19;;;23.11;66.11
31357;BME280;60001;48.404;11.738;2023-08-24T06:19:31;96488.94;;;23.14;65.74
31357;BME280;60001;48.404;11.738;2023-08-24T06:21:03;96498.84;;;23.22;64.68
31357;BME280;60001;48.404;11.738;2023-08-24T06:22:34;96492.28;;;23.32;64.48
31357;BME280;60001;48.404;11.738;2023-08-24T06:24:05;96488.53;;;23.45;64.55
31357;BME280;60001;48.404;11.738;2023-08-24T06:25:37;96486.09;;;23.52;63.19
31357;BME280;60001;48.404;11.738;2023-08-24T06:27:08;96491.06;;;23.84;62.06
31357;BME280;60001;48.404;11.738;2023-08-24T06:28:40;96485.47;;;23.89;61.82
31357;BME280;60001;48.404;11.738;2023-08-24T06:30:11;96490.69;;;24.06;61.10
31357;BME280;60001;48.404;11.738;2023-08-24T06:31:43;96491.16;;;24.08;60.67
31357;BME280;60001;48.404;11.738;2023-08-24T06:33:17;96490.63;;;24.27;60.83
31357;BME280;60001;48.404;11.738;2023-08-24T06:34:48;96480.34;;;24.41;61.76
31357;BME280;60001;48.404;11.738;2023-08-24T06:36:19;96482.72;;;24.55;60.82
31357;BME280;60001;48.404;11.738;2023-08-24T06:37:51;96485.50;;;24.58;59.62
31357;BME280;60001;48.404;11.738;2023-08-24T06:39:22;96485.16;;;24.60;57.04
31357;BME280;60001;48.404;11.738;2023-08-24T06:40:55;96485.31;;;24.76;57.63
31357;BME280;60001;48.404;11.738;2023-08-24T06:42:28;96483.47;;;24.92;56.07
31357;BME280;60001;48.404;11.738;2023-08-24T06:43:59;96482.91;;;24.99;55.75
31357;BME280;60001;48.404;11.738;2023-08-24T06:45:30;96493.59;;;25.20;55.75
31357;BME280;60001;48.404;11.738;2023-08-24T06:47:02;96492.44;;;25.33;55.56
31357;BME280;60001;48.404;11.738;2023-08-24T06:48:35;96488.91;;;25.45;55.81
31357;BME280;60001;48.404;11.738;2023-08-24T06:50:08;96477.50;;;25.51;56.01
31357;BME280;60001;48.404;11.738;2023-08-24T06:51:39;96473.34;;;25.54;55.11
31357;BME280;60001;48.404;11.738;2023-08-24T06:53:11;96482.88;;;25.63;53.93
31357;BME280;60001;48.404;11.738;2023-08-24T06:54:42;96476.22;;;25.73;54.08
31357;BME280;60001;48.404;11.738;2023-08-24T06:56:14;96483.28;;;25.78;54.34
31357;BME280;60001;48.404;11.738;2023-08-24T06:57:48;96477.34;;;25.72;53.90
31357;BME280;60001;48.404;11.738;2023-08-24T06:59:19;96476.84;;;25.82;53.48
31357;BME280;60001;48.404;11.738;2023-08-24T07:00:51;96481.00;;;25.80;53.62
31357;BME280;60001;48.404;11.738;2023-08-24T07:02:22;96482.47;;;25.89;52.74
31357;BME280;60001;48.404;11.738;2023-08-24T07:03:55;96472.69;;;26.01;52.95
31357;BME280;60001;48.404;11.738;2023-08-24T07:05:26;96460.56;;;25.94;52.38
31357;BME280;60001;48.404;11.738;2023-08-24T07:06:58;96466.16;;;26.02;52.48
31357;BME280;60001;48.404;11.738;2023-08-24T07:08:28;96468.59;;;26.07;51.84
31357;BME280;60001;48.404;11.738;2023-08-24T07:10:00;96460.03;;;26.05;51.00
31357;BME280;60001;48.404;11.738;2023-08-24T07:11:31;96454.06;;;25.83;50.84
31357;BME280;60001;48.404;11.738;2023-08-24T07:13:04;96460.66;;;25.98;50.98
31357;BME280;60001;48.404;11.738;2023-08-24T07:14:35;96453.84;;;26.04;50.47
31357;BME280;60001;48.404;11.738;2023-08-24T07:16:07;96452.09;;;26.12;49.57
31357;BME280;60001;48.404;11.738;2023-08-24T07:17:38;96437.78;;;26.11;50.12
31357;BME280;60001;48.404;11.738;2023-08-24T07:19:12;96453.59;;;26.25;49.81
31357;BME280;60001;48.404;11.738;2023-08-24T07:20:42;96453.78;;;26.16;51.35
31357;BME280;60001;48.404;11.738;2023-08-24T07:22:15;96453.00;;;26.16;50.77
31357;BME280;60001;48.404;11.738;2023-08-24T07:23:45;96450.91;;;26.25;51.85
31357;BME280;60001;48.404;11.738;2023-08-24T07:25:17;96456.84;;;26.31;50.69
31357;BME280;60001;48.404;11.738;2023-08-24T07:26:48;96453.78;;;26.32;49.94
31357;BME280;60001;48.404;11.738;2023-08-24T07:28:20;96456.19;;;26.21;50.97
31357;BME280;60001;48.404;11.738;2023-08-24T07:29:50;96448.91;;;26.22;49.43
31357;BME280;60001;48.404;11.738;2023-08-24T07:31:22;96448.19;;;26.25;49.43
31357;BME280;60001;48.404;11.738;2023-08-24T07:32:54;96446.69;;;26.12;50.17
31357;BME280;60001;48.404;11.738;2023-08-24T07:34:26;96448.97;;;26.26;50.20
31357;BME280;60001;48.404;11.738;2023-08-24T07:36:00;96443.25;;;26.43;49.17
31357;BME280;60001;48.404;11.738;2023-08-24T07:37:34;96447.16;;;26.45;49.34
31357;BME280;60001;48.404;11.738;2023-08-24T07:39:06;96448.22;;;26.41;48.76
31357;BME280;60001;48.404;11.738;2023-08-24T07:40:38;96451.59;;;26.54;49.17
31357;BME280;60001;48.404;11.738;2023-08-24T07:42:08;96444.28;;;26.54;49.56
31357;BME280;60001;48.404;11.738;2023-08-24T07:43:40;96448.22;;;26.57;49.55
31357;BME280;60001;48.404;11.738;2023-08-24T07:45:12;96443.81;;;26.68;49.33
31357;BME280;60001;48.404;11.738;2023-08-24T07:46:45;96438.66;;;26.78;48.45
31357;BME280;60001;48.404;11.738;2023-08-24T07:48:17;96447.81;;;26.74;48.99
31357;BME280;60001;48.404;11.738;2023-08-24T07:49:49;96445.63;;;26.80;48.53
31357;BME280;60001;48.404;11.738;2023-08-24T07:51:22;96441.00;;;26.80;49.36
31357;BME280;60001;48.404;11.738;2023-08-24T07:52:53;96441.16;;;26.87;49.03
31357;BME280;60001;48.404;11.738;2023-08-24T07:54:25;96439.94;;;26.85;48.98
31357;BME280;60001;48.404;11.738;2023-08-24T07:55:56;96446.38;;;26.96;50.42
31357;BME280;60001;48.404;11.738;2023-08-24T07:57:28;96446.06;;;26.82;49.41
31357;BME280;60001;48.404;11.738;2023-08-24T07:58:59;96449.03;;;26.76;48.53
31357;BME280;60001;48.404;11.738;2023-08-24T08:00:32;96445.22;;;26.77;48.82
31357;BME280;60001;48.404;11.738;2023-08-24T08:02:03;96448.25;;;26.92;49.05